sensor_id;sensor_type;location;lat;lon;timestamp;pressure;altitude;pressure_sealevel;temperature
13497;BMP180;6820;49.374;8.452;2023-04-15T00:02:13;99672.38;;;14.47
13497;BMP180;6820;49.374;8.452;2023-04-15T00:06:15;99673.03;;;14.41
13497;BMP180;6820;49.374;8.452;2023-04-15T00:10:16;99671.31;;;14.40
13497;BMP180;6820;49.374;8.452;2023-04-15T00:14:18;99660.44;;;14.46
13497;BMP180;6820;49.374;8.452;2023-04-15T00:18:19;99657.91;;;14.46
13497;BMP180;6820;49.374;8.452;2023-04-15T00:22:21;99660.53;;;14.47
13497;BMP180;6820;49.374;8.452;2023-04-15T00:26:23;99661.41;;;14.49
13497;BMP180;6820;49.374;8.452;2023-04-15T00:30:24;99654.63;;;14.50
13497;BMP180;6820;49.374;8.452;2023-04-15T00:34:27;99650.25;;;14.46
13497;BMP180;6820;49.374;8.452;2023-04-15T00:38:29;99643.38;;;14.43
13497;BMP180;6820;49.374;8.452;2023-04-15T00:42:30;99645.06;;;14.43
13497;BMP180;6820;49.374;8.452;2023-04-15T00:46:35;99644.19;;;14.42
13497;BMP180;6820;49.374;8.452;2023-04-15T00:50:37;99641.66;;;14.42
13497;BMP180;6820;49.374;8.452;2023-04-15T00:54:39;99646.38;;;14.32
13497;BMP180;6820;49.374;8.452;2023-04-15T00:58:41;99652.81;;;14.23
13497;BMP180;6820;49.374;8.452;2023-04-15T01:02:42;99649.75;;;14.08
13497;BMP180;6820;49.374;8.452;2023-04-15T01:06:44;99647.78;;;14.01
13497;BMP180;6820;49.374;8.452;2023-04-15T01:10:46;99646.94;;;14.01
13497;BMP180;6820;49.374;8.452;2023-04-15T01:14:48;99643.47;;;13.99
13497;BMP180;6820;49.374;8.452;2023-04-15T01:18:49;99647.69;;;13.98
13497;BMP180;6820;49.374;8.452;2023-04-15T01:22:53;99643.41;;;13.97
13497;BMP180;6820;49.374;8.452;2023-04-15T01:26:55;99640.78;;;13.96
13497;BMP180;6820;49.374;8.452;2023-04-15T01:31:11;99639.06;;;13.95
13497;BMP180;6820;49.374;8.452;2023-04-15T01:35:13;99654.25;;;13.93
13497;BMP180;6820;49.374;8.452;2023-04-15T01:39:15;99659.31;;;13.92
13497;BMP180;6820;49.374;8.452;2023-04-15T01:43:17;99659.06;;;13.86
13497;BMP180;6820;49.374;8.452;2023-04-15T01:47:19;99654.59;;;13.79
13497;BMP180;6820;49.374;8.452;2023-04-15T01:51:21;99647.63;;;13.75
13497;BMP180;6820;49.374;8.452;2023-04-15T01:55:23;99653.47;;;13.72
13497;BMP180;6820;49.374;8.452;2023-04-15T01:59:25;99654.31;;;13.71
13497;BMP180;6820;49.374;8.452;2023-04-15T02:03:28;99653.44;;;13.71
13497;BMP180;6820;49.374;8.452;2023-04-15T02:07:30;99648.28;;;13.69
13497;BMP180;6820;49.374;8.452;2023-04-15T02:11:32;99653.13;;;13.62
13497;BMP180;6820;49.374;8.452;2023-04-15T02:15:36;99657.94;;;13.56
13497;BMP180;6820;49.374;8.452;2023-04-15T02:19:38;99653.78;;;13.58
13497;BMP180;6820;49.374;8.452;2023-04-15T02:23:40;99645.22;;;13.56
13497;BMP180;6820;49.374;8.452;2023-04-15T02:27:42;99662.16;;;13.54
13497;BMP180;6820;49.374;8.452;2023-04-15T02:31:46;99654.41;;;13.51
13497;BMP180;6820;49.374;8.452;2023-04-15T02:35:48;99658.81;;;13.35
13497;BMP180;6820;49.374;8.452;2023-04-15T02:39:50;99661.78;;;13.24
13497;BMP180;6820;49.374;8.452;2023-04-15T02:43:53;99651.47;;;13.21
13497;BMP180;6820;49.374;8.452;2023-04-15T02:47:55;99654.84;;;13.20
13497;BMP180;6820;49.374;8.452;2023-04-15T02:51:57;99653.78;;;13.15
13497;BMP180;6820;49.374;8.452;2023-04-15T02:56:00;99653.44;;;13.06
13497;BMP180;6820;49.374;8.452;2023-04-15T03:00:03;99656.78;;;13.05
13497;BMP180;6820;49.374;8.452;2023-04-15T03:04:06;99662.81;;;13.07
13497;BMP180;6820;49.374;8.452;2023-04-15T03:08:09;99656.00;;;13.06
13497;BMP180;6820;49.374;8.452;2023-04-15T03:12:11;99666.94;;;13.05
13497;BMP180;6820;49.374;8.452;2023-04-15T03:16:13;99662.56;;;13.01
13497;BMP180;6820;49.374;8.452;2023-04-15T03:20:15;99665.84;;;12.99
13497;BMP180;6820;49.374;8.452;2023-04-15T03:24:17;99662.19;;;12.92
13497;BMP180;6820;49.374;8.452;2023-04-15T03:28:19;99660.56;;;12.74
13497;BMP180;6820;49.374;8.452;2023-04-15T03:32:22;99667.91;;;12.68
13497;BMP180;6820;49.374;8.452;2023-04-15T03:36:24;99661.84;;;12.65
13497;BMP180;6820;49.374;8.452;2023-04-15T03:40:26;99666.06;;;12.64
13497;BMP180;6820;49.374;8.452;2023-04-15T03:44:27;99663.56;;;12.66
13497;BMP180;6820;49.374;8.452;2023-04-15T03:48:29;99670.41;;;12.67
13497;BMP180;6820;49.374;8.452;2023-04-15T03:52:30;99669.56;;;12.66
13497;BMP180;6820;49.374;8.452;2023-04-15T03:56:32;99666.84;;;12.63
13497;BMP180;6820;49.374;8.452;2023-04-15T04:00:33;99661.38;;;12.53
13497;BMP180;6820;49.374;8.452;2023-04-15T04:04:35;99668.72;;;12.47
13497;BMP180;6820;49.374;8.452;2023-04-15T04:08:37;99659.38;;;12.46
13497;BMP180;6820;49.374;8.452;2023-04-15T04:12:39;99664.31;;;12.43
13497;BMP180;6820;49.374;8.452;2023-04-15T04:16:40;99668.72;;;12.47
13497;BMP180;6820;49.374;8.452;2023-04-15T04:20:42;99675.47;;;12.47
13497;BMP180;6820;49.374;8.452;2023-04-15T04:24:44;99678.75;;;12.44
13497;BMP180;6820;49.374;8.452;2023-04-15T04:28:45;99677.75;;;12.41
13497;BMP180;6820;49.374;8.452;2023-04-15T04:32:48;99690.34;;;12.38
13497;BMP180;6820;49.374;8.452;2023-04-15T04:36:50;99688.63;;;12.37
13497;BMP180;6820;49.374;8.452;2023-04-15T04:40:51;99690.25;;;12.36
13497;BMP180;6820;49.374;8.452;2023-04-15T04:44:53;99685.91;;;12.34
13497;BMP180;6820;49.374;8.452;2023-04-15T04:48:55;99687.72;;;12.36
13497;BMP180;6820;49.374;8.452;2023-04-15T04:52:56;99675.94;;;12.38
13497;BMP180;6820;49.374;8.452;2023-04-15T04:56:58;99684.56;;;12.42
13497;BMP180;6820;49.374;8.452;2023-04-15T05:01:00;99690.53;;;12.42
13497;BMP180;6820;49.374;8.452;2023-04-15T05:05:03;99682.22;;;12.46
13497;BMP180;6820;49.374;8.452;2023-04-15T05:09:05;99692.47;;;12.48
13497;BMP180;6820;49.374;8.452;2023-04-15T05:13:06;99698.28;;;12.45
13497;BMP180;6820;49.374;8.452;2023-04-15T05:17:08;99706.69;;;12.44
13497;BMP180;6820;49.374;8.452;2023-04-15T05:21:11;99704.97;;;12.43
13497;BMP180;6820;49.374;8.452;2023-04-15T05:25:13;99720.25;;;12.45
13497;BMP180;6820;49.374;8.452;2023-04-15T05:29:14;99716.06;;;12.45
13497;BMP180;6820;49.374;8.452;2023-04-15T05:33:16;99717.06;;;12.48
13497;BMP180;6820;49.374;8.452;2023-04-15T05:37:18;99721.41;;;12.51
13497;BMP180;6820;49.374;8.452;2023-04-15T05:41:21;99720.47;;;12.49
13497;BMP180;6820;49.374;8.452;2023-04-15T05:45:22;99718.75;;;12.48
13497;BMP180;6820;49.374;8.452;2023-04-15T05:49:24;99726.38;;;12.48
13497;BMP180;6820;49.374;8.452;2023-04-15T05:53:26;99729.38;;;12.40
13497;BMP180;6820;49.374;8.452;2023-04-15T05:57:27;99723.16;;;12.33
13497;BMP180;6820;49.374;8.452;2023-04-15T06:01:29;99728.22;;;12.33
13497;BMP180;6820;49.374;8.452;2023-04-15T06:05:30;99728.69;;;12.44
13497;BMP180;6820;49.374;8.452;2023-04-15T06:09:32;99723.34;;;12.56
13497;BMP180;6820;49.374;8.452;2023-04-15T06:13:34;99726.94;;;12.61
13497;BMP180;6820;49.374;8.452;2023-04-15T06:17:35;99720.22;;;12.63
13497;BMP180;6820;49.374;8.452;2023-04-15T06:21:37;99717.09;;;12.69
13497;BMP180;6820;49.374;8.452;2023-04-15T06:25:39;99732.75;;;12.78
13497;BMP180;6820;49.374;8.452;2023-04-15T06:29:40;99735.00;;;12.90
13497;BMP180;6820;49.374;8.452;2023-04-15T06:33:42;99731.59;;;13.10
13497;BMP180;6820;49.374;8.452;2023-04-15T06:37:43;99732.03;;;13.20
13497;BMP180;6820;49.374;8.452;2023-04-15T06:41:45;99736.91;;;13.36
13497;BMP180;6820;49.374;8.452;2023-04-15T06:45:47;99738.50;;;13.54
13497;BMP180;6820;49.374;8.452;2023-04-15T06:49:49;99740.00;;;13.71
13497;BMP180;6820;49.374;8.452;2023-04-15T06:53:50;99728.72;;;13.86
13497;BMP180;6820;49.374;8.452;2023-04-15T06:57:52;99719.50;;;13.90
13497;BMP180;6820;49.374;8.452;2023-04-15T07:01:53;99720.09;;;14.04
13497;BMP180;6820;49.374;8.452;2023-04-15T07:05:55;99721.47;;;14.18
13497;BMP180;6820;49.374;8.452;2023-04-15T07:09:57;99717.84;;;14.35
13497;BMP180;6820;49.374;8.452;2023-04-15T07:13:59;99715.13;;;14.54
13497;BMP180;6820;49.374;8.452;2023-04-15T07:18:00;99706.53;;;14.76
13497;BMP180;6820;49.374;8.452;2023-04-15T07:22:02;99701.66;;;15.07
13497;BMP180;6820;49.374;8.452;2023-04-15T07:26:04;99702.31;;;15.26
13497;BMP180;6820;49.374;8.452;2023-04-15T07:30:06;99704.53;;;15.43
13497;BMP180;6820;49.374;8.452;2023-04-15T07:34:09;99708.50;;;15.60
13497;BMP180;6820;49.374;8.452;2023-04-15T07:38:11;99713.38;;;15.80
13497;BMP180;6820;49.374;8.452;2023-04-15T07:42:15;99715.47;;;15.93
13497;BMP180;6820;49.374;8.452;2023-04-15T07:46:17;99710.03;;;16.10
13497;BMP180;6820;49.374;8.452;2023-04-15T07:50:18;99711.41;;;16.28
13497;BMP180;6820;49.374;8.452;2023-04-15T07:54:20;99711.84;;;16.43
13497;BMP180;6820;49.374;8.452;2023-04-15T07:58:22;99712.16;;;16.55
13497;BMP180;6820;49.374;8.452;2023-04-15T08:02:23;99703.75;;;16.59
13497;BMP180;6820;49.374;8.452;2023-04-15T08:06:25;99712.28;;;16.59
13497;BMP180;6820;49.374;8.452;2023-04-15T08:10:28;99698.28;;;16.77
13497;BMP180;6820;49.374;8.452;2023-04-15T08:14:30;99707.28;;;16.96
13497;BMP180;6820;49.374;8.452;2023-04-15T08:18:32;99711.63;;;17.30
13497;BMP180;6820;49.374;8.452;2023-04-15T08:22:33;99708.06;;;17.60
13497;BMP180;6820;49.374;8.452;2023-04-15T08:26:36;99711.31;;;17.91
13497;BMP180;6820;49.374;8.452;2023-04-15T08:30:37;99712.53;;;18.06
13497;BMP180;6820;49.374;8.452;2023-04-15T08:34:39;99713.31;;;18.02
13497;BMP180;6820;49.374;8.452;2023-04-15T08:38:40;99712.41;;;18.02
13497;BMP180;6820;49.374;8.452;2023-04-15T08:42:47;99717.75;;;18.11
13497;BMP180;6820;49.374;8.452;2023-04-15T08:46:50;99709.47;;;18.24
13497;BMP180;6820;49.374;8.452;2023-04-15T08:50:53;99722.66;;;18.41
13497;BMP180;6820;49.374;8.452;2023-04-15T08:54:56;99720.59;;;18.66
13497;BMP180;6820;49.374;8.452;2023-04-15T08:58:59;99725.22;;;18.87
13497;BMP180;6820;49.374;8.452;2023-04-15T09:03:01;99724.88;;;19.13
13497;BMP180;6820;49.374;8.452;2023-04-15T09:07:03;99725.00;;;19.20
13497;BMP180;6820;49.374;8.452;2023-04-15T09:11:05;99726.91;;;19.30
13497;BMP180;6820;49.374;8.452;2023-04-15T09:15:07;99733.75;;;19.32
13497;BMP180;6820;49.374;8.452;2023-04-15T09:19:22;99729.56;;;19.36
13497;BMP180;6820;49.374;8.452;2023-04-15T09:23:24;99736.41;;;19.35
13497;BMP180;6820;49.374;8.452;2023-04-15T09:27:25;99744.13;;;19.35
13497;BMP180;6820;49.374;8.452;2023-04-15T09:31:30;99740.75;;;19.39
13497;BMP180;6820;49.374;8.452;2023-04-15T09:35:32;99740.91;;;19.50
13497;BMP180;6820;49.374;8.452;2023-04-15T09:39:50;99743.69;;;19.63
13497;BMP180;6820;49.374;8.452;2023-04-15T09:43:52;99749.34;;;19.94
13497;BMP180;6820;49.374;8.452;2023-04-15T09:47:56;99736.94;;;20.31
13497;BMP180;6820;49.374;8.452;2023-04-15T09:52:00;99738.88;;;20.49
13497;BMP180;6820;49.374;8.452;2023-04-15T09:56:07;99740.81;;;20.65
13497;BMP180;6820;49.374;8.452;2023-04-15T10:00:09;99746.09;;;20.74
13497;BMP180;6820;49.374;8.452;2023-04-15T10:04:12;99749.53;;;20.76
13497;BMP180;6820;49.374;8.452;2023-04-15T10:08:16;99750.63;;;21.00
13497;BMP180;6820;49.374;8.452;2023-04-15T10:12:18;99751.03;;;21.38
13497;BMP180;6820;49.374;8.452;2023-04-15T10:16:22;99752.03;;;21.55
13497;BMP180;6820;49.374;8.452;2023-04-15T10:20:27;99745.22;;;21.62
13497;BMP180;6820;49.374;8.452;2023-04-15T10:24:32;99742.69;;;21.70
13497;BMP180;6820;49.374;8.452;2023-04-15T10:28:34;99748.66;;;21.62
13497;BMP180;6820;49.374;8.452;2023-04-15T10:32:36;99753.09;;;21.84
13497;BMP180;6820;49.374;8.452;2023-04-15T10:36:38;99750.59;;;21.98
13497;BMP180;6820;49.374;8.452;2023-04-15T10:40:42;99749.78;;;22.02
13497;BMP180;6820;49.374;8.452;2023-04-15T10:44:49;99753.31;;;22.10
13497;BMP180;6820;49.374;8.452;2023-04-15T10:48:54;99772.16;;;22.02
13497;BMP180;6820;49.374;8.452;2023-04-15T10:52:56;99765.22;;;21.98
13497;BMP180;6820;49.374;8.452;2023-04-15T11:01:02;99772.25;;;22.15
13497;BMP180;6820;49.374;8.452;2023-04-15T11:05:05;99768.97;;;22.52
13497;BMP180;6820;49.374;8.452;2023-04-15T11:09:06;99764.72;;;22.67
13497;BMP180;6820;49.374;8.452;2023-04-15T11:17:11;99774.19;;;22.63
13497;BMP180;6820;49.374;8.452;2023-04-15T11:21:13;99775.06;;;22.64
13497;BMP180;6820;49.374;8.452;2023-04-15T11:25:25;99781.09;;;22.69
13497;BMP180;6820;49.374;8.452;2023-04-15T11:29:31;99781.97;;;22.69
13497;BMP180;6820;49.374;8.452;2023-04-15T11:33:33;99791.53;;;22.88
13497;BMP180;6820;49.374;8.452;2023-04-15T11:37:34;99794.19;;;23.12
13497;BMP180;6820;49.374;8.452;2023-04-15T11:41:36;99792.50;;;23.40
13497;BMP180;6820;49.374;8.452;2023-04-15T11:45:59;99797.72;;;23.70
13497;BMP180;6820;49.374;8.452;2023-04-15T11:50:17;99791.66;;;23.69
13497;BMP180;6820;49.374;8.452;2023-04-15T11:54:19;99796.81;;;23.56
13497;BMP180;6820;49.374;8.452;2023-04-15T11:58:24;99797.72;;;23.59
13497;BMP180;6820;49.374;8.452;2023-04-15T12:02:30;99799.41;;;23.53
13497;BMP180;6820;49.374;8.452;2023-04-15T12:06:33;99814.88;;;23.43
13497;BMP180;6820;49.374;8.452;2023-04-15T12:10:39;99811.44;;;23.27
13497;BMP180;6820;49.374;8.452;2023-04-15T12:14:41;99825.19;;;23.15
13497;BMP180;6820;49.374;8.452;2023-04-15T12:18:44;99828.69;;;23.33
13497;BMP180;6820;49.374;8.452;2023-04-15T12:22:46;99828.72;;;23.51
13497;BMP180;6820;49.374;8.452;2023-04-15T12:26:50;99831.34;;;23.65
13497;BMP180;6820;49.374;8.452;2023-04-15T12:30:53;99837.28;;;23.23
13497;BMP180;6820;49.374;8.452;2023-04-15T12:34:54;99841.53;;;22.99
13497;BMP180;6820;49.374;8.452;2023-04-15T12:38:56;99849.25;;;22.92
13497;BMP180;6820;49.374;8.452;2023-04-15T12:42:57;99849.19;;;22.80
13497;BMP180;6820;49.374;8.452;2023-04-15T12:46:59;99852.38;;;22.36
13497;BMP180;6820;49.374;8.452;2023-04-15T12:51:01;99859.13;;;22.13
13497;BMP180;6820;49.374;8.452;2023-04-15T12:55:06;99865.81;;;21.92
13497;BMP180;6820;49.374;8.452;2023-04-15T12:59:08;99874.31;;;21.81
13497;BMP180;6820;49.374;8.452;2023-04-15T13:03:09;99874.31;;;21.78
13497;BMP180;6820;49.374;8.452;2023-04-15T13:07:11;99868.19;;;21.68
13497;BMP180;6820;49.374;8.452;2023-04-15T13:11:14;99878.25;;;21.45
13497;BMP180;6820;49.374;8.452;2023-04-15T13:15:16;99877.34;;;21.38
13497;BMP180;6820;49.374;8.452;2023-04-15T13:19:20;99876.53;;;21.45
13497;BMP180;6820;49.374;8.452;2023-04-15T13:23:22;99887.84;;;21.55
13497;BMP180;6820;49.374;8.452;2023-04-15T13:27:24;99892.22;;;21.62
13497;BMP180;6820;49.374;8.452;2023-04-15T13:31:25;99887.13;;;21.72
13497;BMP180;6820;49.374;8.452;2023-04-15T13:35:27;99893.09;;;21.67
13497;BMP180;6820;49.374;8.452;2023-04-15T13:39:29;99893.13;;;21.69
13497;BMP180;6820;49.374;8.452;2023-04-15T13:43:30;99893.16;;;21.72
13497;BMP180;6820;49.374;8.452;2023-04-15T13:47:34;99897.75;;;22.06
13497;BMP180;6820;49.374;8.452;2023-04-15T13:51:36;99902.84;;;22.01
13497;BMP180;6820;49.374;8.452;2023-04-15T13:55:38;99911.38;;;21.90
13497;BMP180;6820;49.374;8.452;2023-04-15T13:59:43;99905.34;;;21.90
13497;BMP180;6820;49.374;8.452;2023-04-15T14:03:44;99914.03;;;21.98
13497;BMP180;6820;49.374;8.452;2023-04-15T14:07:46;99914.03;;;22.00
13497;BMP180;6820;49.374;8.452;2023-04-15T14:11:51;99917.50;;;22.04
13497;BMP180;6820;49.374;8.452;2023-04-15T14:15:53;99930.63;;;22.28
13497;BMP180;6820;49.374;8.452;2023-04-15T14:19:55;99915.31;;;22.50
13497;BMP180;6820;49.374;8.452;2023-04-15T14:23:57;99928.25;;;22.53
13497;BMP180;6820;49.374;8.452;2023-04-15T14:27:59;99928.97;;;22.35
13497;BMP180;6820;49.374;8.452;2023-04-15T14:32:00;99937.38;;;22.09
13497;BMP180;6820;49.374;8.452;2023-04-15T14:36:12;99950.16;;;21.99
13497;BMP180;6820;49.374;8.452;2023-04-15T14:40:13;99968.25;;;22.02
13497;BMP180;6820;49.374;8.452;2023-04-15T14:44:15;99967.34;;;21.97
13497;BMP180;6820;49.374;8.452;2023-04-15T14:48:16;99976.69;;;21.86
13497;BMP180;6820;49.374;8.452;2023-04-15T14:52:18;99995.63;;;21.87
13497;BMP180;6820;49.374;8.452;2023-04-15T14:56:20;100002.56;;;21.94
13497;BMP180;6820;49.374;8.452;2023-04-15T15:00:21;100024.66;;;21.69
13497;BMP180;6820;49.374;8.452;2023-04-15T15:04:23;100027.31;;;21.77
13497;BMP180;6820;49.374;8.452;2023-04-15T15:08:24;100022.34;;;21.93
13497;BMP180;6820;49.374;8.452;2023-04-15T15:12:26;100051.44;;;21.79
13497;BMP180;6820;49.374;8.452;2023-04-15T15:16:28;100053.44;;;21.35
13497;BMP180;6820;49.374;8.452;2023-04-15T15:20:29;100059.03;;;21.07
13497;BMP180;6820;49.374;8.452;2023-04-15T15:24:31;100069.75;;;20.78
13497;BMP180;6820;49.374;8.452;2023-04-15T15:28:33;100072.19;;;20.69
13497;BMP180;6820;49.374;8.452;2023-04-15T15:32:35;100084.50;;;20.38
13497;BMP180;6820;49.374;8.452;2023-04-15T15:36:36;100094.53;;;20.23
13497;BMP180;6820;49.374;8.452;2023-04-15T15:40:38;100097.69;;;20.09
13497;BMP180;6820;49.374;8.452;2023-04-15T15:44:40;100108.72;;;20.04
13497;BMP180;6820;49.374;8.452;2023-04-15T15:48:41;100103.69;;;20.10
13497;BMP180;6820;49.374;8.452;2023-04-15T15:52:43;100110.53;;;20.08
13497;BMP180;6820;49.374;8.452;2023-04-15T15:56:45;100122.91;;;19.84
13497;BMP180;6820;49.374;8.452;2023-04-15T16:00:46;100136.06;;;19.59
13497;BMP180;6820;49.374;8.452;2023-04-15T16:04:48;100141.34;;;19.27
13497;BMP180;6820;49.374;8.452;2023-04-15T16:08:51;100151.63;;;18.92
13497;BMP180;6820;49.374;8.452;2023-04-15T16:12:53;100160.81;;;18.85
13497;BMP180;6820;49.374;8.452;2023-04-15T16:16:54;100170.09;;;18.80
13497;BMP180;6820;49.374;8.452;2023-04-15T16:20:57;100172.63;;;18.78
13497;BMP180;6820;49.374;8.452;2023-04-15T16:24:58;100178.66;;;18.48
13497;BMP180;6820;49.374;8.452;2023-04-15T16:29:01;100193.88;;;18.10
13497;BMP180;6820;49.374;8.452;2023-04-15T16:33:06;100203.94;;;17.77
13497;BMP180;6820;49.374;8.452;2023-04-15T16:37:08;100199.16;;;17.61
13497;BMP180;6820;49.374;8.452;2023-04-15T16:41:10;100205.38;;;17.68
13497;BMP180;6820;49.374;8.452;2023-04-15T16:45:11;100213.59;;;17.58
13497;BMP180;6820;49.374;8.452;2023-04-15T16:49:13;100217.69;;;17.51
13497;BMP180;6820;49.374;8.452;2023-04-15T16:53:14;100222.38;;;17.38
13497;BMP180;6820;49.374;8.452;2023-04-15T16:57:16;100227.94;;;17.53
13497;BMP180;6820;49.374;8.452;2023-04-15T17:01:19;100233.72;;;17.73
13497;BMP180;6820;49.374;8.452;2023-04-15T17:05:22;100234.19;;;17.61
13497;BMP180;6820;49.374;8.452;2023-04-15T17:09:23;100239.53;;;17.68
13497;BMP180;6820;49.374;8.452;2023-04-15T17:13:25;100255.84;;;17.44
13497;BMP180;6820;49.374;8.452;2023-04-15T17:17:26;100265.13;;;17.14
13497;BMP180;6820;49.374;8.452;2023-04-15T17:21:28;100256.69;;;16.94
13497;BMP180;6820;49.374;8.452;2023-04-15T17:25:30;100267.53;;;16.87
13497;BMP180;6820;49.374;8.452;2023-04-15T17:29:32;100290.31;;;16.79
13497;BMP180;6820;49.374;8.452;2023-04-15T17:33:33;100284.06;;;16.72
13497;BMP180;6820;49.374;8.452;2023-04-15T17:37:55;100299.41;;;16.72
13497;BMP180;6820;49.374;8.452;2023-04-15T17:41:56;100302.03;;;16.50
13497;BMP180;6820;49.374;8.452;2023-04-15T17:45:58;100304.91;;;16.36
13497;BMP180;6820;49.374;8.452;2023-04-15T17:50:02;100307.06;;;16.25
13497;BMP180;6820;49.374;8.452;2023-04-15T17:54:03;100322.41;;;16.25
13497;BMP180;6820;49.374;8.452;2023-04-15T17:58:06;100323.13;;;16.21
13497;BMP180;6820;49.374;8.452;2023-04-15T18:02:08;100335.44;;;16.11
13497;BMP180;6820;49.374;8.452;2023-04-15T18:06:10;100342.59;;;15.98
13497;BMP180;6820;49.374;8.452;2023-04-15T18:10:12;100345.91;;;15.95
13497;BMP180;6820;49.374;8.452;2023-04-15T18:14:14;100355.56;;;16.02
13497;BMP180;6820;49.374;8.452;2023-04-15T18:18:33;100347.84;;;16.22
13497;BMP180;6820;49.374;8.452;2023-04-15T18:22:35;100348.22;;;16.31
13497;BMP180;6820;49.374;8.452;2023-04-15T18:26:37;100361.88;;;16.32
13497;BMP180;6820;49.374;8.452;2023-04-15T18:30:38;100365.88;;;16.25
13497;BMP180;6820;49.374;8.452;2023-04-15T18:34:40;100368.28;;;16.21
13497;BMP180;6820;49.374;8.452;2023-04-15T18:38:46;100375.44;;;16.31
13497;BMP180;6820;49.374;8.452;2023-04-15T18:42:47;100385.22;;;16.19
13497;BMP180;6820;49.374;8.452;2023-04-15T18:46:49;100389.81;;;16.07
13497;BMP180;6820;49.374;8.452;2023-04-15T18:50:51;100393.94;;;16.04
13497;BMP180;6820;49.374;8.452;2023-04-15T18:54:54;100405.97;;;16.06
13497;BMP180;6820;49.374;8.452;2023-04-15T18:58:56;100406.31;;;16.14
13497;BMP180;6820;49.374;8.452;2023-04-15T19:03:18;100417.41;;;16.14
13497;BMP180;6820;49.374;8.452;2023-04-15T19:07:19;100412.38;;;16.16
13497;BMP180;6820;49.374;8.452;2023-04-15T19:11:21;100416.44;;;16.12
13497;BMP180;6820;49.374;8.452;2023-04-15T19:15:23;100421.19;;;16.03
13497;BMP180;6820;49.374;8.452;2023-04-15T19:19:25;100434.09;;;16.06
13497;BMP180;6820;49.374;8.452;2023-04-15T19:23:26;100437.03;;;16.15
13497;BMP180;6820;49.374;8.452;2023-04-15T19:27:28;100442.00;;;16.12
13497;BMP180;6820;49.374;8.452;2023-04-15T19:31:30;100444.31;;;16.06
13497;BMP180;6820;49.374;8.452;2023-04-15T19:35:32;100449.88;;;15.96
13497;BMP180;6820;49.374;8.452;2023-04-15T19:39:34;100448.44;;;15.83
13497;BMP180;6820;49.374;8.452;2023-04-15T19:43:35;100456.81;;;15.79
13497;BMP180;6820;49.374;8.452;2023-04-15T19:47:37;100462.53;;;15.73
13497;BMP180;6820;49.374;8.452;2023-04-15T19:51:40;100462.00;;;15.61
13497;BMP180;6820;49.374;8.452;2023-04-15T19:55:41;100465.19;;;15.56
13497;BMP180;6820;49.374;8.452;2023-04-15T19:59:43;100465.06;;;15.53
13497;BMP180;6820;49.374;8.452;2023-04-15T20:03:45;100467.28;;;15.46
13497;BMP180;6820;49.374;8.452;2023-04-15T20:07:47;100474.94;;;15.46
13497;BMP180;6820;49.374;8.452;2023-04-15T20:11:52;100476.84;;;15.50
13497;BMP180;6820;49.374;8.452;2023-04-15T20:16:14;100473.59;;;15.53
13497;BMP180;6820;49.374;8.452;2023-04-15T20:20:16;100474.06;;;15.45
13497;BMP180;6820;49.374;8.452;2023-04-15T20:24:18;100478.94;;;15.39
13497;BMP180;6820;49.374;8.452;2023-04-15T20:28:20;100476.28;;;15.38
13497;BMP180;6820;49.374;8.452;2023-04-15T20:32:23;100488.28;;;15.39
13497;BMP180;6820;49.374;8.452;2023-04-15T20:36:25;100485.72;;;15.39
13497;BMP180;6820;49.374;8.452;2023-04-15T20:40:27;100489.13;;;15.39
13497;BMP180;6820;49.374;8.452;2023-04-15T20:44:28;100495.38;;;15.46
13497;BMP180;6820;49.374;8.452;2023-04-15T20:48:30;100496.66;;;15.55
13497;BMP180;6820;49.374;8.452;2023-04-15T20:52:32;100496.25;;;15.65
13497;BMP180;6820;49.374;8.452;2023-04-15T20:56:34;100498.31;;;15.73
13497;BMP180;6820;49.374;8.452;2023-04-15T21:00:35;100498.94;;;15.88
13497;BMP180;6820;49.374;8.452;2023-04-15T21:04:37;100500.38;;;16.02
13497;BMP180;6820;49.374;8.452;2023-04-15T21:08:39;100503.13;;;16.06
13497;BMP180;6820;49.374;8.452;2023-04-15T21:12:41;100503.34;;;16.12
13497;BMP180;6820;49.374;8.452;2023-04-15T21:16:42;100510.28;;;16.13
13497;BMP180;6820;49.374;8.452;2023-04-15T21:20:44;100509.56;;;16.17
13497;BMP180;6820;49.374;8.452;2023-04-15T21:24:47;100505.31;;;16.17
13497;BMP180;6820;49.374;8.452;2023-04-15T21:28:49;100520.63;;;16.16
13497;BMP180;6820;49.374;8.452;2023-04-15T21:32:50;100516.50;;;16.19
13497;BMP180;6820;49.374;8.452;2023-04-15T21:36:52;100522.34;;;16.17
13497;BMP180;6820;49.374;8.452;2023-04-15T21:40:53;100529.97;;;16.16
13497;BMP180;6820;49.374;8.452;2023-04-15T21:44:55;100532.69;;;16.20
13497;BMP180;6820;49.374;8.452;2023-04-15T21:48:57;100536.91;;;16.18
13497;BMP180;6820;49.374;8.452;2023-04-15T21:52:58;100550.34;;;16.14
13497;BMP180;6820;49.374;8.452;2023-04-15T21:57:00;100543.56;;;16.15
13497;BMP180;6820;49.374;8.452;2023-04-15T22:01:03;100548.03;;;16.20
13497;BMP180;6820;49.374;8.452;2023-04-15T22:05:05;100543.94;;;16.23
13497;BMP180;6820;49.374;8.452;2023-04-15T22:09:07;100547.31;;;16.22
13497;BMP180;6820;49.374;8.452;2023-04-15T22:13:11;100540.56;;;16.24
13497;BMP180;6820;49.374;8.452;2023-04-15T22:17:13;100536.41;;;16.26
13497;BMP180;6820;49.374;8.452;2023-04-15T22:21:15;100551.13;;;16.32
13497;BMP180;6820;49.374;8.452;2023-04-15T22:25:17;100556.13;;;16.29
13497;BMP180;6820;49.374;8.452;2023-04-15T22:29:18;100559.47;;;16.28
13497;BMP180;6820;49.374;8.452;2023-04-15T22:33:20;100572.25;;;16.28
13497;BMP180;6820;49.374;8.452;2023-04-15T22:37:21;100575.75;;;16.30
13497;BMP180;6820;49.374;8.452;2023-04-15T22:41:24;100582.59;;;16.31
13497;BMP180;6820;49.374;8.452;2023-04-15T22:45:25;100581.81;;;16.32
13497;BMP180;6820;49.374;8.452;2023-04-15T22:49:27;100592.03;;;16.32
13497;BMP180;6820;49.374;8.452;2023-04-15T22:53:29;100604.00;;;16.33
13497;BMP180;6820;49.374;8.452;2023-04-15T22:57:31;100605.91;;;16.37
13497;BMP180;6820;49.374;8.452;2023-04-15T23:01:32;100600.63;;;16.34
13497;BMP180;6820;49.374;8.452;2023-04-15T23:05:34;100611.13;;;16.40
13497;BMP180;6820;49.374;8.452;2023-04-15T23:09:36;100615.50;;;16.42
13497;BMP180;6820;49.374;8.452;2023-04-15T23:13:38;100615.75;;;16.48
13497;BMP180;6820;49.374;8.452;2023-04-15T23:17:40;100622.47;;;16.46
13497;BMP180;6820;49.374;8.452;2023-04-15T23:21:42;100613.81;;;16.43
13497;BMP180;6820;49.374;8.452;2023-04-15T23:25:44;100615.56;;;16.44
13497;BMP180;6820;49.374;8.452;2023-04-15T23:29:45;100616.63;;;16.48
13497;BMP180;6820;49.374;8.452;2023-04-15T23:33:47;100622.44;;;16.45
13497;BMP180;6820;49.374;8.452;2023-04-15T23:37:48;100631.84;;;16.46